Time;durP1;ratioP1;P1;durP2;ratioP2;P2;SDS_P1;SDS_P2;PMS_P1;PMS_P2;Temp;Humidity;BMP_temperature;BMP_pressure;BME280_temperature;BME280_humidity;BME280_pressure;Samples;Min_cycle;Max_cycle;Signal;HPM_P1;HPM_P2
2021/09/09 00:01:52;;;;;;;25.55;21.13;;;23.00;48.00;;;;;;4149890;28;20050;-49
2021/09/09 00:03:54;;;;;;;31.42;22.73;;;23.00;48.00;;;;;;4149915;28;20050;-52
2021/09/09 00:05:56;;;;;;;28.88;21.85;;;23.00;48.00;;;;;;4165196;28;20045;-52
2021/09/09 00:07:58;;;;;;;29.33;21.92;;;23.00;48.00;;;;;;4165998;28;20046;-50
2021/09/09 00:10:00;;;;;;;25.98;20.08;;;23.00;48.00;;;;;;4165791;28;20073;-52
2021/09/09 00:12:03;;;;;;;29.42;22.60;;;23.00;48.00;;;;;;4165513;28;20061;-53
2021/09/09 00:14:05;;;;;;;24.63;21.65;;;23.00;48.10;;;;;;4165714;28;20061;-53
2021/09/09 00:16:07;;;;;;;26.25;20.48;;;23.00;48.10;;;;;;4180764;28;20104;-54
2021/09/09 00:18:09;;;;;;;25.38;19.88;;;23.00;48.10;;;;;;4165689;28;20052;-54
2021/09/09 00:20:12;;;;;;;26.70;20.92;;;23.00;48.00;;;;;;4165565;28;20070;-52
2021/09/09 00:22:14;;;;;;;24.25;19.67;;;23.00;48.10;;;;;;4165640;28;20069;-54
2021/09/09 00:24:16;;;;;;;24.00;20.48;;;23.00;48.10;;;;;;4164117;28;20045;-54
2021/09/09 00:26:18;;;;;;;23.52;19.05;;;23.00;48.10;;;;;;4165240;28;20044;-54
2021/09/09 00:28:20;;;;;;;24.77;19.80;;;23.00;48.10;;;;;;4165440;28;20061;-51
2021/09/09 00:30:22;;;;;;;25.63;19.00;;;23.00;48.10;;;;;;4165496;28;20065;-51
2021/09/09 00:32:25;;;;;;;24.38;18.65;;;23.00;48.10;;;;;;4165404;28;20481;-53
2021/09/09 00:34:27;;;;;;;24.25;18.55;;;23.00;48.10;;;;;;4165483;28;20042;-56
2021/09/09 00:36:29;;;;;;;23.52;18.17;;;23.00;48.10;;;;;;3817670;28;10000330;-52
2021/09/09 00:38:31;;;;;;;39.17;17.30;;;23.00;48.10;;;;;;4164519;28;20070;-50
2021/09/09 00:40:33;;;;;;;21.10;15.90;;;23.00;48.20;;;;;;4164158;28;20050;-48
2021/09/09 00:42:35;;;;;;;17.70;13.05;;;23.00;47.90;;;;;;4164902;28;20080;-50
2021/09/09 00:44:37;;;;;;;13.45;11.48;;;22.90;47.50;;;;;;4164512;28;20097;-50
2021/09/09 00:46:39;;;;;;;16.38;11.07;;;22.90;47.10;;;;;;4163439;28;20069;-50
2021/09/09 00:48:41;;;;;;;15.85;10.32;;;22.80;47.10;;;;;;4164835;28;20062;-49
2021/09/09 00:50:43;;;;;;;18.20;10.43;;;22.80;46.80;;;;;;4165273;28;20546;-50
2021/09/09 00:52:49;;;;;;;15.00;10.52;;;22.80;46.70;;;;;;4164178;28;20053;-52
2021/09/09 00:54:51;;;;;;;11.18;8.88;;;22.70;46.60;;;;;;4165040;28;20038;-49
2021/09/09 00:56:53;;;;;;;13.70;9.82;;;22.70;46.50;;;;;;4164854;28;20475;-52
2021/09/09 00:58:55;;;;;;;14.82;10.02;;;22.70;46.30;;;;;;4164877;28;20042;-52
2021/09/09 01:00:57;;;;;;;10.23;8.55;;;22.70;46.30;;;;;;4164291;28;20053;-49
2021/09/09 01:02:59;;;;;;;13.85;8.48;;;22.70;46.10;;;;;;4165093;28;20046;-48
2021/09/09 01:05:02;;;;;;;12.43;8.60;;;22.70;46.40;;;;;;4164828;28;20048;-52
2021/09/09 01:07:04;;;;;;;12.90;8.68;;;22.70;45.90;;;;;;4164690;28;20068;-54
2021/09/09 01:09:06;;;;;;;12.95;8.38;;;22.60;45.90;;;;;;4164803;28;20061;-51
2021/09/09 01:11:09;;;;;;;12.98;7.68;;;22.60;45.90;;;;;;4163701;28;20149;-51
2021/09/09 01:13:11;;;;;;;13.70;8.25;;;22.60;45.80;;;;;;4164497;28;20044;-51
2021/09/09 01:15:13;;;;;;;10.48;6.57;;;22.60;45.80;;;;;;4164667;28;20041;-50
2021/09/09 01:17:15;;;;;;;13.45;7.68;;;22.60;45.60;;;;;;4164853;28;20076;-51
2021/09/09 01:19:18;;;;;;;12.65;7.60;;;22.60;45.50;;;;;;4164458;28;20958;-48
2021/09/09 01:21:20;;;;;;;9.85;6.88;;;22.60;45.50;;;;;;4164546;28;20074;-50
2021/09/09 01:23:22;;;;;;;10.43;6.68;;;22.60;45.50;;;;;;4163282;28;20052;-50
2021/09/09 01:25:24;;;;;;;12.68;6.63;;;22.60;45.60;;;;;;4164691;28;20066;-52
2021/09/09 01:27:26;;;;;;;10.55;6.38;;;22.60;45.60;;;;;;4164752;28;20057;-53
2021/09/09 01:29:32;;;;;;;10.50;6.25;;;22.50;45.20;;;;;;4164367;28;20101;-51
2021/09/09 01:31:34;;;;;;;8.88;5.65;;;22.50;45.30;;;;;;4164513;28;20140;-49
2021/09/09 01:33:36;;;;;;;8.70;5.95;;;22.50;45.30;;;;;;4164577;28;20076;-51
2021/09/09 01:35:38;;;;;;;8.68;5.75;;;22.50;45.20;;;;;;4164167;28;20042;-52
2021/09/09 01:37:40;;;;;;;7.32;5.07;;;22.50;45.10;;;;;;4164396;28;20084;-50
2021/09/09 01:39:45;;;;;;;8.30;4.90;;;22.50;45.10;;;;;;4164544;28;20102;-49
2021/09/09 01:41:52;;;;;;;10.38;5.30;;;22.50;45.10;;;;;;4155751;28;20137;-51
2021/09/09 01:43:54;;;;;;;9.38;5.50;;;22.60;45.20;;;;;;4148160;28;20046;-52
2021/09/09 01:45:56;;;;;;;7.63;4.85;;;22.50;45.10;;;;;;4148162;28;20053;-52
2021/09/09 01:48:00;;;;;;;8.75;5.15;;;22.50;45.10;;;;;;4157773;28;20042;-52
2021/09/09 01:50:03;;;;;;;10.00;5.28;;;22.50;45.20;;;;;;4164269;28;20061;-53
2021/09/09 01:52:06;;;;;;;11.73;5.43;;;22.50;45.10;;;;;;4161198;28;20042;-51
2021/09/09 01:54:08;;;;;;;8.82;5.95;;;22.50;45.20;;;;;;4163207;28;20049;-53
2021/09/09 01:56:10;;;;;;;9.75;4.85;;;22.50;45.00;;;;;;4179590;28;20045;-49
2021/09/09 01:58:12;;;;;;;8.25;5.15;;;22.50;45.10;;;;;;4152568;28;20069;-50
2021/09/09 02:00:15;;;;;;;13.75;5.45;;;22.50;45.10;;;;;;4147373;28;20046;-52
2021/09/09 02:02:17;;;;;;;8.27;5.30;;;22.50;45.20;;;;;;4148034;28;20042;-49
2021/09/09 02:04:19;;;;;;;6.88;4.88;;;22.50;45.20;;;;;;4147953;28;20147;-51
2021/09/09 02:06:22;;;;;;;7.65;4.95;;;22.50;45.10;;;;;;4147925;28;20069;-49
2021/09/09 02:08:24;;;;;;;10.70;4.65;;;22.50;44.90;;;;;;4147810;28;20042;-50
2021/09/09 02:10:26;;;;;;;7.75;4.53;;;22.60;44.90;;;;;;4147659;28;20046;-54
2021/09/09 02:12:28;;;;;;;11.95;4.30;;;22.50;44.90;;;;;;4147344;28;20097;-51
2021/09/09 02:14:30;;;;;;;6.07;4.45;;;22.50;44.80;;;;;;4147266;28;20123;-53
2021/09/09 02:16:32;;;;;;;7.15;4.05;;;22.50;45.00;;;;;;4147476;28;20046;-51
2021/09/09 02:18:35;;;;;;;7.20;3.95;;;22.50;44.90;;;;;;4147811;28;20046;-52
2021/09/09 02:20:37;;;;;;;10.18;5.07;;;22.50;44.80;;;;;;4147748;28;20048;-48
2021/09/09 02:22:39;;;;;;;10.23;4.75;;;22.50;44.90;;;;;;4147580;28;20042;-51
2021/09/09 02:24:45;;;;;;;7.88;4.60;;;22.50;44.70;;;;;;4147155;28;20060;-53
2021/09/09 02:26:47;;;;;;;6.43;4.13;;;22.50;44.70;;;;;;4147534;28;20055;-49
2021/09/09 02:28:49;;;;;;;8.73;4.25;;;22.50;44.70;;;;;;4147385;28;20077;-51
2021/09/09 02:30:51;;;;;;;11.32;4.70;;;22.50;44.70;;;;;;4147453;28;20050;-47
2021/09/09 02:32:54;;;;;;;9.25;5.13;;;22.50;44.70;;;;;;4147922;28;20038;-49
2021/09/09 02:34:56;;;;;;;10.13;4.50;;;22.40;44.70;;;;;;4150860;28;20065;-49
2021/09/09 02:36:58;;;;;;;8.85;4.90;;;22.50;44.60;;;;;;4164836;28;20120;-47
2021/09/09 02:39:00;;;;;;;12.57;5.32;;;22.40;44.60;;;;;;4164826;28;20042;-48
2021/09/09 02:41:02;;;;;;;6.28;4.00;;;22.50;44.60;;;;;;4164735;28;20069;-47
2021/09/09 02:43:05;;;;;;;8.13;4.88;;;22.40;44.50;;;;;;4164815;28;20094;-50
2021/09/09 02:45:08;;;;;;;6.97;4.82;;;22.50;44.50;;;;;;4164800;28;20093;-51
2021/09/09 02:47:10;;;;;;;6.40;3.97;;;22.40;44.50;;;;;;4164650;28;20042;-50
2021/09/09 02:49:12;;;;;;;6.35;3.92;;;22.50;44.50;;;;;;4163760;28;20097;-50
2021/09/09 02:51:14;;;;;;;9.18;4.55;;;22.50;44.50;;;;;;4164550;28;20101;-50
2021/09/09 02:53:16;;;;;;;8.32;4.15;;;22.40;44.40;;;;;;4164721;28;20069;-49
2021/09/09 02:55:18;;;;;;;6.53;4.10;;;22.40;44.50;;;;;;4152263;28;20037;-50
2021/09/09 02:57:20;;;;;;;7.20;4.72;;;22.40;44.30;;;;;;4153027;28;20077;-50
2021/09/09 02:59:22;;;;;;;5.95;3.80;;;22.40;44.40;;;;;;4148224;28;20070;-49
2021/09/09 03:01:25;;;;;;;8.02;3.95;;;22.40;44.30;;;;;;4148261;28;20145;-49
2021/09/09 03:03:27;;;;;;;5.57;3.92;;;22.40;44.30;;;;;;4148239;28;20065;-50
2021/09/09 03:05:29;;;;;;;5.28;3.65;;;22.40;44.30;;;;;;4148288;28;20042;-51
2021/09/09 03:07:31;;;;;;;6.53;4.00;;;22.40;44.30;;;;;;4148045;28;20057;-51
2021/09/09 03:09:33;;;;;;;5.72;4.20;;;22.40;44.20;;;;;;4152310;28;20042;-49
2021/09/09 03:11:35;;;;;;;8.02;4.53;;;22.40;44.30;;;;;;4164428;28;20095;-49
2021/09/09 03:13:37;;;;;;;4.68;3.28;;;22.40;44.30;;;;;;4164274;28;20038;-51
2021/09/09 03:15:39;;;;;;;6.82;3.92;;;22.40;44.20;;;;;;4164456;28;20042;-49
2021/09/09 03:17:41;;;;;;;8.07;4.03;;;22.40;44.20;;;;;;4164482;28;20046;-51
2021/09/09 03:19:43;;;;;;;9.98;4.35;;;22.40;44.30;;;;;;4164422;28;20065;-50
2021/09/09 03:21:45;;;;;;;10.18;3.70;;;22.40;44.20;;;;;;4164359;28;20101;-50
2021/09/09 03:23:47;;;;;;;7.22;3.55;;;22.30;44.10;;;;;;4164368;28;20101;-50
2021/09/09 03:25:49;;;;;;;10.50;5.22;;;22.40;44.10;;;;;;4164323;28;20050;-50
2021/09/09 03:27:51;;;;;;;7.45;3.95;;;22.40;44.10;;;;;;4164308;28;20101;-49
2021/09/09 03:29:53;;;;;;;12.77;4.60;;;22.30;44.10;;;;;;4164284;28;20042;-48
2021/09/09 03:31:56;;;;;;;7.40;4.30;;;22.40;44.20;;;;;;4164318;28;20120;-51
2021/09/09 03:33:58;;;;;;;6.90;3.63;;;22.40;44.20;;;;;;4164199;28;20076;-47
2021/09/09 03:36:00;;;;;;;8.40;4.20;;;22.30;44.20;;;;;;4164337;28;20755;-48
2021/09/09 03:38:02;;;;;;;5.57;3.85;;;22.30;44.20;;;;;;4164099;28;20045;-51
2021/09/09 03:40:04;;;;;;;9.65;3.90;;;22.30;44.20;;;;;;4164337;28;20097;-54
2021/09/09 03:42:07;;;;;;;9.18;3.50;;;22.30;44.20;;;;;;4164191;28;20079;-53
2021/09/09 03:44:09;;;;;;;9.18;4.65;;;22.30;44.30;;;;;;4179548;28;20124;-51
2021/09/09 03:46:11;;;;;;;13.43;3.97;;;22.30;44.20;;;;;;4148680;28;20050;-51
2021/09/09 03:48:13;;;;;;;11.93;3.90;;;22.30;44.20;;;;;;4147040;28;20046;-51
2021/09/09 03:50:15;;;;;;;10.38;4.35;;;22.30;44.20;;;;;;4147740;28;20054;-51
2021/09/09 03:52:18;;;;;;;8.90;4.10;;;22.30;44.20;;;;;;4147969;28;20117;-51
2021/09/09 03:54:20;;;;;;;7.72;4.25;;;22.30;44.20;;;;;;4146824;28;20047;-49
2021/09/09 03:56:22;;;;;;;6.93;4.20;;;22.30;44.20;;;;;;4147874;28;20077;-54
2021/09/09 03:58:24;;;;;;;10.50;4.13;;;22.30;44.20;;;;;;4147705;28;20074;-50
2021/09/09 04:00:26;;;;;;;8.70;4.63;;;22.30;44.10;;;;;;4147129;28;20157;-53
2021/09/09 04:02:28;;;;;;;9.13;3.95;;;22.30;44.10;;;;;;4148036;28;20073;-52
2021/09/09 04:04:31;;;;;;;9.70;4.30;;;22.30;44.10;;;;;;4147842;28;20042;-52
2021/09/09 04:06:33;;;;;;;9.48;4.28;;;22.40;44.10;;;;;;4147879;28;20080;-50
2021/09/09 04:08:35;;;;;;;8.45;4.70;;;22.30;44.10;;;;;;4147731;28;20056;-48
2021/09/09 04:10:37;;;;;;;10.32;4.60;;;22.30;44.10;;;;;;4147784;28;20098;-49
2021/09/09 04:12:39;;;;;;;7.43;3.97;;;22.30;44.20;;;;;;4147808;28;20042;-49
2021/09/09 04:14:41;;;;;;;7.18;4.03;;;22.30;44.10;;;;;;4147685;28;20065;-52
2021/09/09 04:16:43;;;;;;;11.02;4.32;;;22.30;44.20;;;;;;4147608;28;20046;-49
2021/09/09 04:18:45;;;;;;;8.13;4.47;;;22.30;44.10;;;;;;4147749;28;20101;-52
2021/09/09 04:20:47;;;;;;;6.45;3.90;;;22.30;44.10;;;;;;4150073;28;20046;-49
2021/09/09 04:22:49;;;;;;;13.02;5.43;;;22.30;44.10;;;;;;4150733;28;20050;-48
2021/09/09 04:24:51;;;;;;;15.68;4.80;;;22.30;44.20;;;;;;4150675;28;20102;-51
2021/09/09 04:26:53;;;;;;;10.13;4.18;;;22.30;44.00;;;;;;4150544;28;20046;-50
2021/09/09 04:28:55;;;;;;;7.22;3.85;;;22.30;44.10;;;;;;4150303;28;20094;-52
2021/09/09 04:30:56;;;;;;;13.30;4.47;;;22.30;44.00;;;;;;4148695;28;20046;-50
2021/09/09 04:32:58;;;;;;;8.85;4.88;;;22.30;44.10;;;;;;4150563;28;20078;-50
2021/09/09 04:35:01;;;;;;;10.43;4.18;;;22.30;44.00;;;;;;4152662;28;20066;-51
2021/09/09 04:37:03;;;;;;;9.38;4.88;;;22.30;44.00;;;;;;4165958;28;20041;-48
2021/09/09 04:39:05;;;;;;;9.50;5.10;;;22.30;44.10;;;;;;4166654;28;20077;-50
2021/09/09 04:41:07;;;;;;;11.48;5.20;;;22.30;44.00;;;;;;4166746;28;20101;-49
2021/09/09 04:43:09;;;;;;;11.13;4.57;;;22.30;44.00;;;;;;4166604;28;20046;-50
2021/09/09 04:45:12;;;;;;;9.93;5.60;;;22.20;44.00;;;;;;4166821;28;20125;-51
2021/09/09 04:47:14;;;;;;;8.98;5.18;;;22.20;44.00;;;;;;4166494;28;20097;-48
2021/09/09 04:49:15;;;;;;;12.50;5.53;;;22.20;44.00;;;;;;4166423;28;20046;-51
2021/09/09 04:51:18;;;;;;;10.50;5.60;;;22.30;44.00;;;;;;4166350;28;20110;-49
2021/09/09 04:53:20;;;;;;;9.02;4.50;;;22.20;44.00;;;;;;4166513;28;20116;-48
2021/09/09 04:55:21;;;;;;;10.00;5.78;;;22.30;43.90;;;;;;4166462;28;20046;-53
2021/09/09 04:57:23;;;;;;;13.30;5.70;;;22.20;43.90;;;;;;4166427;28;20038;-50
2021/09/09 04:59:26;;;;;;;10.38;5.30;;;22.20;44.00;;;;;;4165463;28;20097;-53
2021/09/09 05:01:28;;;;;;;13.98;5.55;;;22.20;43.90;;;;;;4166188;28;20056;-49
2021/09/09 05:03:30;;;;;;;9.02;5.45;;;22.20;43.90;;;;;;4166239;28;20117;-52
2021/09/09 05:05:33;;;;;;;8.05;5.43;;;22.20;44.00;;;;;;4166387;28;20057;-54
2021/09/09 05:07:35;;;;;;;8.60;4.90;;;22.20;43.90;;;;;;4166301;28;20050;-51
2021/09/09 05:09:37;;;;;;;9.27;5.50;;;22.20;43.90;;;;;;4181674;28;20045;-51
2021/09/09 05:11:39;;;;;;;17.35;5.68;;;22.20;43.90;;;;;;4165959;28;20073;-49
2021/09/09 05:13:41;;;;;;;13.52;5.75;;;22.30;44.70;;;;;;4166096;28;20065;-52
2021/09/09 05:15:43;;;;;;;9.77;5.95;;;22.30;44.10;;;;;;4165868;28;20076;-48
2021/09/09 05:17:45;;;;;;;13.23;5.75;;;22.20;44.00;;;;;;4166091;28;20046;-52
2021/09/09 05:19:47;;;;;;;13.75;5.43;;;22.20;44.10;;;;;;4166103;28;20093;-51
2021/09/09 05:21:49;;;;;;;15.40;5.72;;;22.20;44.10;;;;;;4165806;28;20045;-53
2021/09/09 05:23:51;;;;;;;10.45;5.43;;;22.30;44.10;;;;;;4181409;28;20075;-50
2021/09/09 05:25:53;;;;;;;22.02;6.63;;;22.20;44.10;;;;;;4165952;28;20065;-48
2021/09/09 05:27:55;;;;;;;11.57;5.40;;;22.20;44.10;;;;;;4165949;28;20048;-47
2021/09/09 05:29:57;;;;;;;14.15;6.28;;;22.20;44.20;;;;;;4166082;28;20072;-47
2021/09/09 05:31:59;;;;;;;10.98;5.57;;;22.30;44.20;;;;;;4165114;28;20056;-48
2021/09/09 05:34:01;;;;;;;15.18;6.03;;;22.30;44.20;;;;;;4165024;28;20042;-49
2021/09/09 05:36:04;;;;;;;12.90;6.20;;;22.20;44.20;;;;;;4165797;28;20042;-48
2021/09/09 05:38:07;;;;;;;11.80;5.70;;;22.20;44.20;;;;;;4165805;28;20069;-50
2021/09/09 05:40:10;;;;;;;13.02;5.80;;;22.30;44.20;;;;;;4165950;28;20114;-50
2021/09/09 05:42:12;;;;;;;13.95;5.70;;;22.20;44.20;;;;;;4164822;28;20053;-52
2021/09/09 05:44:14;;;;;;;9.07;5.18;;;22.20;44.20;;;;;;4165698;28;20041;-50
2021/09/09 05:46:16;;;;;;;12.15;5.88;;;22.20;44.30;;;;;;4165674;28;20049;-51
2021/09/09 05:48:19;;;;;;;11.27;5.25;;;22.20;44.20;;;;;;4165552;28;20050;-50
2021/09/09 05:50:21;;;;;;;11.38;5.72;;;22.20;44.20;;;;;;4165539;28;20056;-53
2021/09/09 05:52:23;;;;;;;10.40;5.78;;;22.20;44.30;;;;;;4165786;28;20120;-47
2021/09/09 05:54:25;;;;;;;11.10;5.38;;;22.20;44.30;;;;;;4165452;28;20034;-48
2021/09/09 05:56:27;;;;;;;11.13;6.30;;;22.20;44.40;;;;;;4180853;28;20104;-47
2021/09/09 05:58:29;;;;;;;9.88;5.53;;;22.20;44.40;;;;;;4180995;28;20122;-48
2021/09/09 06:00:31;;;;;;;12.10;6.22;;;22.30;44.40;;;;;;4165401;28;20131;-48
2021/09/09 06:02:40;;;;;;;8.52;4.85;;;22.30;44.40;;;;;;4165539;28;20097;-52
2021/09/09 06:04:44;;;;;;;10.90;5.28;;;22.20;44.40;;;;;;4165404;28;20102;-49
2021/09/09 06:06:46;;;;;;;9.57;5.82;;;22.30;44.40;;;;;;4165608;28;20097;-48
2021/09/09 06:08:48;;;;;;;10.75;4.68;;;22.30;44.50;;;;;;4165413;28;20093;-49
2021/09/09 06:10:50;;;;;;;9.02;5.68;;;22.30;44.40;;;;;;4165378;28;20105;-47
2021/09/09 06:12:52;;;;;;;12.88;5.68;;;22.30;44.40;;;;;;4165282;28;20060;-50
2021/09/09 06:14:54;;;;;;;9.70;5.05;;;22.30;44.40;;;;;;4165391;28;20048;-49
2021/09/09 06:16:56;;;;;;;8.43;5.03;;;22.20;44.40;;;;;;4165269;28;20046;-52
2021/09/09 06:19:00;;;;;;;12.73;5.47;;;22.30;44.40;;;;;;4165324;28;20109;-48
2021/09/09 06:21:02;;;;;;;12.40;5.83;;;22.30;44.40;;;;;;4165336;28;20052;-54
2021/09/09 06:23:04;;;;;;;14.85;6.10;;;22.30;44.40;;;;;;4165062;28;20045;-48
2021/09/09 06:25:06;;;;;;;6.32;4.82;;;22.30;44.50;;;;;;4165013;28;20042;-52
2021/09/09 06:27:08;;;;;;;14.60;5.85;;;22.30;44.50;;;;;;4164012;28;20042;-51
2021/09/09 06:29:10;;;;;;;9.43;4.78;;;22.30;44.40;;;;;;4164254;28;20098;-53
2021/09/09 06:31:13;;;;;;;8.57;4.97;;;22.20;44.40;;;;;;4165093;28;20048;-51
2021/09/09 06:33:15;;;;;;;10.07;4.88;;;22.30;44.40;;;;;;4164906;28;20089;-50
2021/09/09 06:35:17;;;;;;;12.30;5.22;;;22.30;44.60;;;;;;4164983;28;20065;-49
2021/09/09 06:37:19;;;;;;;10.02;5.18;;;22.30;44.50;;;;;;4164614;28;20402;-49
2021/09/09 06:39:21;;;;;;;8.88;5.63;;;22.20;44.40;;;;;;4164932;28;20073;-50
2021/09/09 06:41:23;;;;;;;10.27;5.72;;;22.30;44.50;;;;;;4164842;28;20054;-52
2021/09/09 06:43:25;;;;;;;10.35;4.63;;;22.30;44.50;;;;;;4163914;28;20066;-51
2021/09/09 06:45:27;;;;;;;8.90;4.78;;;22.30;44.50;;;;;;4164764;28;20038;-51
2021/09/09 06:47:29;;;;;;;9.40;5.18;;;22.30;44.50;;;;;;4163585;28;20042;-50
2021/09/09 06:49:31;;;;;;;12.13;5.00;;;22.30;44.50;;;;;;4164662;28;20049;-49
2021/09/09 06:51:33;;;;;;;9.48;4.78;;;22.30;44.40;;;;;;4164656;28;20076;-53
2021/09/09 06:53:35;;;;;;;18.88;7.13;;;22.30;45.10;;;;;;4164636;28;20483;-48
2021/09/09 06:55:37;;;;;;;28.48;11.00;;;22.30;46.40;;;;;;4163030;28;20070;-54
2021/09/09 06:57:39;;;;;;;35.13;11.63;;;22.30;48.60;;;;;;4157934;28;20056;-51
2021/09/09 06:59:42;;;;;;;28.40;11.05;;;22.20;48.70;;;;;;4150135;28;20050;-50
2021/09/09 07:01:44;;;;;;;22.98;9.57;;;22.20;49.40;;;;;;4148336;28;20070;-52
2021/09/09 07:03:46;;;;;;;28.25;10.15;;;22.20;48.80;;;;;;4148306;28;20101;-51
2021/09/09 07:05:48;;;;;;;24.15;9.82;;;22.20;48.00;;;;;;4148038;28;20070;-50
2021/09/09 07:07:50;;;;;;;55.80;30.55;;;22.10;49.20;;;;;;4148160;28;20081;-52
2021/09/09 07:09:52;;;;;;;48.60;26.77;;;22.10;48.30;;;;;;4147990;28;20111;-55
2021/09/09 07:11:54;;;;;;;57.50;36.45;;;22.00;47.70;;;;;;4162253;28;20053;-50
2021/09/09 07:13:56;;;;;;;37.70;24.05;;;22.00;47.30;;;;;;4165842;28;20042;-49
2021/09/09 07:16:00;;;;;;;38.90;20.63;;;22.00;47.40;;;;;;4148334;28;20482;-53
2021/09/09 07:18:02;;;;;;;34.05;19.02;;;22.00;47.30;;;;;;4148436;28;20042;-49
2021/09/09 07:20:04;;;;;;;35.83;19.60;;;22.00;47.70;;;;;;4148167;28;20106;-52
2021/09/09 07:22:06;;;;;;;29.23;14.43;;;22.00;47.50;;;;;;4148134;28;20102;-50
2021/09/09 07:24:09;;;;;;;24.90;14.45;;;22.00;47.30;;;;;;4148262;28;20050;-53
2021/09/09 07:26:11;;;;;;;34.22;25.02;;;22.00;46.60;;;;;;4148158;28;20049;-49
2021/09/09 07:28:13;;;;;;;39.45;28.95;;;21.90;46.20;;;;;;4147937;28;20160;-51
2021/09/09 07:30:15;;;;;;;31.60;17.88;;;21.80;46.70;;;;;;4147981;28;20066;-53
2021/09/09 07:32:17;;;;;;;22.15;13.65;;;21.80;46.20;;;;;;4148044;28;20047;-54
2021/09/09 07:34:19;;;;;;;24.92;14.23;;;21.60;45.90;;;;;;4148033;28;20078;-53
2021/09/09 07:36:21;;;;;;;26.70;13.43;;;21.60;46.00;;;;;;4148179;28;20077;-52
2021/09/09 07:38:23;;;;;;;23.55;10.93;;;21.60;46.70;;;;;;4147911;28;20073;-53
2021/09/09 07:40:25;;;;;;;21.52;9.82;;;21.60;45.70;;;;;;4147813;28;20098;-54
2021/09/09 07:42:27;;;;;;;28.60;9.45;;;21.50;46.10;;;;;;4147901;28;20118;-52
2021/09/09 07:44:29;;;;;;;18.55;8.38;;;21.50;46.20;;;;;;4147845;28;20121;-54
2021/09/09 07:46:32;;;;;;;31.92;8.68;;;21.60;46.10;;;;;;4148055;28;20046;-52
2021/09/09 07:48:34;;;;;;;19.25;7.70;;;21.60;46.10;;;;;;4147955;28;20046;-52
2021/09/09 07:50:36;;;;;;;17.30;5.63;;;21.70;46.10;;;;;;4149206;28;20110;-53
2021/09/09 07:52:43;;;;;;;16.92;6.70;;;21.60;45.70;;;;;;4156926;28;20042;-49
2021/09/09 07:54:45;;;;;;;21.08;6.65;;;21.60;46.10;;;;;;4148829;28;20045;-48
2021/09/09 07:56:48;;;;;;;12.82;6.35;;;21.60;46.10;;;;;;4150960;28;20050;-50
2021/09/09 07:58:50;;;;;;;14.98;4.75;;;21.50;46.00;;;;;;4151060;28;20081;-49
2021/09/09 08:00:52;;;;;;;14.73;6.28;;;21.60;46.10;;;;;;4151089;28;20046;-53
2021/09/09 08:02:54;;;;;;;28.63;6.25;;;21.60;46.30;;;;;;4150895;28;20046;-53
2021/09/09 08:04:56;;;;;;;37.03;25.35;;;21.50;46.50;;;;;;4150825;28;20077;-54
2021/09/09 08:06:58;;;;;;;31.80;22.25;;;21.60;46.30;;;;;;4150644;28;20106;-50
2021/09/09 08:09:00;;;;;;;22.13;13.90;;;21.70;46.10;;;;;;4150575;28;20423;-52
2021/09/09 08:11:02;;;;;;;24.23;13.02;;;21.70;45.30;;;;;;4150778;28;20049;-54
2021/09/09 08:13:04;;;;;;;18.20;10.57;;;21.70;45.50;;;;;;4150688;28;20034;-52
2021/09/09 08:15:07;;;;;;;24.25;10.70;;;21.70;45.10;;;;;;4150720;28;20094;-52
2021/09/09 08:17:10;;;;;;;19.75;10.30;;;21.80;45.00;;;;;;4150661;28;20050;-52
2021/09/09 08:19:12;;;;;;;15.10;9.23;;;21.70;45.10;;;;;;4150706;28;20046;-55
2021/09/09 08:21:15;;;;;;;57.55;12.55;;;21.80;44.50;;;;;;4150505;28;20050;-52
2021/09/09 08:23:17;;;;;;;32.45;10.68;;;21.90;44.40;;;;;;4150706;28;20102;-53
2021/09/09 08:25:23;;;;;;;27.38;10.50;;;21.90;44.60;;;;;;4158472;28;20133;-55
2021/09/09 08:27:31;;;;;;;27.83;9.15;;;22.00;45.00;;;;;;4166798;28;20046;-53
2021/09/09 08:29:33;;;;;;;26.17;7.65;;;21.90;44.50;;;;;;4166383;28;20064;-53
2021/09/09 08:31:35;;;;;;;17.38;7.70;;;22.00;44.10;;;;;;4166576;28;20042;-50
2021/09/09 08:33:39;;;;;;;16.98;7.82;;;21.90;43.90;;;;;;4166394;28;20394;-49
2021/09/09 08:35:42;;;;;;;13.13;5.55;;;21.90;44.10;;;;;;4166645;28;20048;-51
2021/09/09 08:37:44;;;;;;;12.27;6.00;;;21.90;42.50;;;;;;4166346;28;20080;-51
2021/09/09 08:39:46;;;;;;;24.10;7.20;;;21.90;43.40;;;;;;4166396;28;20045;-51
2021/09/09 08:41:48;;;;;;;21.80;6.93;;;21.90;43.10;;;;;;4166688;28;20073;-55
2021/09/09 08:43:51;;;;;;;17.95;6.53;;;21.90;43.50;;;;;;4166668;28;20105;-53
2021/09/09 08:45:53;;;;;;;14.40;6.68;;;21.90;43.50;;;;;;4166605;28;20069;-52
2021/09/09 08:48:00;;;;;;;16.05;5.50;;;21.90;43.60;;;;;;4166536;28;20069;-55
2021/09/09 08:50:02;;;;;;;13.75;5.28;;;21.90;42.60;;;;;;4166296;28;20052;-52
2021/09/09 08:52:05;;;;;;;9.20;4.55;;;21.90;43.60;;;;;;4166432;28;20042;-54
2021/09/09 08:54:09;;;;;;;9.98;4.60;;;21.90;41.50;;;;;;4181998;28;20069;-53
2021/09/09 08:56:15;;;;;;;11.23;4.15;;;21.90;41.40;;;;;;4181907;28;20084;-49
2021/09/09 08:58:19;;;;;;;12.50;4.13;;;21.90;41.80;;;;;;4166500;28;20071;-53
2021/09/09 09:00:21;;;;;;;12.20;4.27;;;21.90;41.20;;;;;;4166226;28;20050;-54
2021/09/09 09:02:23;;;;;;;11.90;4.45;;;21.90;42.30;;;;;;4165457;28;20050;-50
2021/09/09 09:04:26;;;;;;;12.13;3.90;;;21.90;41.40;;;;;;4166258;28;20073;-52
2021/09/09 09:06:30;;;;;;;12.77;4.68;;;21.90;41.30;;;;;;4165147;28;20046;-50
2021/09/09 09:08:48;;;;;;;12.38;4.85;;;21.90;41.30;;;;;;4166382;28;20054;-49
2021/09/09 09:10:56;;;;;;;5.72;3.78;;;22.00;41.10;;;;;;4166000;28;20070;-51
2021/09/09 09:13:00;;;;;;;7.68;4.60;;;22.00;41.10;;;;;;4166180;28;20046;-54
2021/09/09 09:15:16;;;;;;;10.57;5.65;;;22.00;43.80;;;;;;4166643;28;20045;-50
2021/09/09 09:17:18;;;;;;;9.48;5.07;;;22.10;43.40;;;;;;4165925;28;20073;-50
2021/09/09 09:19:46;;;;;;;14.93;5.43;;;22.20;44.20;;;;;;4165962;28;20069;-53
2021/09/09 09:21:55;;;;;;;16.85;5.25;;;22.20;43.90;;;;;;4165059;28;20089;-54
2021/09/09 09:23:59;;;;;;;11.98;4.78;;;22.30;44.20;;;;;;4165827;28;20046;-56
2021/09/09 09:26:03;;;;;;;9.57;4.50;;;22.40;44.60;;;;;;4165770;28;20050;-52
2021/09/09 09:28:05;;;;;;;10.93;4.18;;;22.40;44.60;;;;;;4165702;28;20046;-51
2021/09/09 09:30:09;;;;;;;12.50;4.70;;;22.40;44.70;;;;;;4164951;28;20049;-49
2021/09/09 09:32:18;;;;;;;9.05;4.28;;;22.40;44.60;;;;;;4166070;28;20052;-49
2021/09/09 09:34:27;;;;;;;8.68;4.50;;;22.50;44.80;;;;;;4165832;28;20106;-51
2021/09/09 09:36:31;;;;;;;11.30;4.65;;;22.50;44.80;;;;;;4164831;28;20042;-51
2021/09/09 09:38:53;;;;;;;12.45;4.80;;;22.50;45.00;;;;;;4165571;28;20044;-56
2021/09/09 09:40:55;;;;;;;27.60;5.85;;;22.50;45.10;;;;;;4165599;28;20042;-54
2021/09/09 09:42:58;;;;;;;25.58;4.55;;;22.50;44.00;;;;;;4165396;28;20113;-50
2021/09/09 09:45:12;;;;;;;18.20;4.90;;;22.40;44.30;;;;;;4165491;28;20269;-56
2021/09/09 09:47:20;;;;;;;23.90;5.53;;;22.40;44.30;;;;;;4165477;28;20046;-55
2021/09/09 09:49:29;;;;;;;25.20;5.50;;;22.40;44.30;;;;;;4165451;28;20042;-53
2021/09/09 09:51:42;;;;;;;14.98;4.15;;;22.30;44.80;;;;;;4165209;28;20096;-55
2021/09/09 09:53:44;;;;;;;18.45;4.65;;;22.20;44.80;;;;;;4165301;28;20041;-54
2021/09/09 09:55:47;;;;;;;12.20;3.83;;;22.20;44.90;;;;;;4165333;28;20041;-54
2021/09/09 09:57:54;;;;;;;13.68;4.88;;;22.30;45.10;;;;;;4165412;28;20056;-55
2021/09/09 09:59:56;;;;;;;17.80;5.53;;;22.30;44.80;;;;;;4165404;28;20098;-53
2021/09/09 10:02:00;;;;;;;15.48;4.40;;;22.30;45.00;;;;;;4165470;28;20089;-52
2021/09/09 10:04:12;;;;;;;8.70;3.97;;;22.30;45.50;;;;;;4165477;28;20050;-56
2021/09/09 10:06:15;;;;;;;17.17;4.20;;;22.40;45.40;;;;;;4165212;28;20042;-55
2021/09/09 10:08:18;;;;;;;8.88;4.25;;;22.40;45.50;;;;;;4165298;28;20042;-53
2021/09/09 10:10:23;;;;;;;12.18;4.20;;;22.50;45.50;;;;;;4164651;28;20105;-51
2021/09/09 10:12:26;;;;;;;20.10;4.55;;;22.50;45.40;;;;;;4165221;28;20124;-51
2021/09/09 10:14:28;;;;;;;13.02;3.85;;;22.50;45.40;;;;;;4165205;28;20042;-51
2021/09/09 10:16:34;;;;;;;9.90;4.60;;;22.50;45.50;;;;;;4165196;28;20052;-52
2021/09/09 10:18:37;;;;;;;11.40;4.20;;;22.60;45.50;;;;;;4164958;28;20042;-52
2021/09/09 10:20:43;;;;;;;12.32;4.10;;;22.60;45.50;;;;;;4165126;28;20106;-53
2021/09/09 10:23:02;;;;;;;10.55;3.90;;;22.60;45.60;;;;;;4165004;28;20061;-50
2021/09/09 10:25:07;;;;;;;8.77;3.80;;;22.60;45.60;;;;;;4165199;28;20874;-52
2021/09/09 10:27:27;;;;;;;11.38;3.95;;;22.60;45.70;;;;;;4165071;28;20065;-54
2021/09/09 10:29:41;;;;;;;10.07;3.90;;;22.60;45.70;;;;;;4164889;28;20061;-51
2021/09/09 10:31:43;;;;;;;12.50;3.92;;;22.60;44.90;;;;;;4163581;28;20045;-51
2021/09/09 10:33:47;;;;;;;8.00;3.47;;;22.50;45.20;;;;;;4163807;28;20049;-48